createdAt,value
2017-09-28T00:00:56.984Z,41.53
2017-09-28T00:03:25.286Z,43.73
2017-09-28T00:05:52.866Z,40.87
2017-09-28T00:08:20.388Z,46.73
2017-09-28T00:10:48.690Z,41.10
2017-09-28T00:13:16.236Z,39.93
2017-09-28T00:15:43.788Z,41.17
2017-09-28T00:18:12.118Z,38.20
2017-09-28T00:20:39.643Z,38.83
2017-09-28T00:23:07.214Z,35.13
2017-09-28T00:25:34.747Z,38.77
2017-09-28T00:28:02.299Z,30.53
2017-09-28T00:30:30.599Z,35.27
2017-09-28T00:32:58.165Z,31.07
2017-09-28T00:35:25.689Z,32.93
2017-09-28T00:37:54.012Z,32.07
2017-09-28T00:40:21.535Z,31.03
2017-09-28T00:42:49.835Z,33.23
2017-09-28T00:45:17.356Z,30.17
2017-09-28T00:47:44.902Z,28.57
2017-09-28T00:50:12.422Z,31.83
2017-09-28T00:52:40.006Z,32.60
2017-09-28T00:55:07.561Z,38.33
2017-09-28T00:57:35.104Z,26.67
2017-09-28T01:00:02.644Z,26.50
2017-09-28T01:02:30.196Z,34.60
2017-09-28T01:04:58.478Z,27.13
2017-09-28T01:07:26.030Z,28.17
2017-09-28T01:09:54.314Z,24.67
2017-09-28T01:12:22.623Z,29.23
2017-09-28T01:14:50.283Z,26.50
2017-09-28T01:17:17.843Z,31.90
2017-09-28T01:19:45.361Z,25.37
2017-09-28T01:22:13.676Z,32.83
2017-09-28T01:24:41.243Z,29.87
2017-09-28T01:27:09.109Z,29.43
2017-09-28T01:29:36.636Z,24.63
2017-09-28T01:32:04.919Z,24.40
2017-09-28T01:34:32.825Z,29.20
2017-09-28T01:37:00.383Z,26.63
2017-09-28T01:39:27.927Z,25.00
2017-09-28T01:41:55.924Z,22.33
2017-09-28T01:44:23.443Z,29.03
2017-09-28T01:46:51.722Z,24.87
2017-09-28T01:49:20.329Z,27.30
2017-09-28T01:51:47.900Z,24.50
2017-09-28T01:54:15.422Z,27.13
2017-09-28T01:56:44.031Z,28.97
2017-09-28T01:59:11.539Z,26.00
2017-09-28T02:01:39.054Z,25.43
2017-09-28T02:04:06.920Z,24.73
2017-09-28T02:06:34.457Z,28.00
2017-09-28T02:09:02.000Z,27.77
2017-09-28T02:11:30.604Z,24.80
2017-09-28T02:13:58.139Z,25.90
2017-09-28T02:16:25.683Z,24.70
2017-09-28T02:18:53.562Z,23.70
2017-09-28T02:21:21.074Z,22.47
2017-09-28T02:23:48.589Z,31.23
2017-09-28T02:26:17.219Z,21.63
2017-09-28T02:28:44.750Z,24.57
2017-09-28T02:31:13.072Z,24.53
2017-09-28T02:33:40.904Z,29.00
2017-09-28T02:36:08.430Z,28.23
2017-09-28T02:38:35.991Z,25.57
2017-09-28T02:41:03.819Z,24.40
2017-09-28T02:43:31.379Z,24.27
2017-09-28T02:45:58.946Z,21.10
2017-09-28T02:48:26.766Z,26.13
2017-09-28T02:50:55.059Z,29.23
2017-09-28T02:53:22.587Z,24.73
2017-09-28T02:55:50.415Z,20.87
2017-09-28T02:58:17.938Z,23.43
2017-09-28T03:00:46.215Z,23.33
2017-09-28T03:03:14.828Z,22.80
2017-09-28T03:05:42.363Z,19.97
2017-09-28T03:08:09.933Z,20.87
2017-09-28T03:10:38.610Z,27.67
2017-09-28T03:13:06.899Z,27.30
2017-09-28T03:15:34.442Z,26.03
2017-09-28T03:18:03.060Z,26.80
2017-09-28T03:20:30.583Z,24.37
2017-09-28T03:22:58.858Z,20.90
2017-09-28T03:25:27.498Z,25.27
2017-09-28T03:27:55.038Z,29.07
2017-09-28T03:30:22.560Z,19.70
2017-09-28T03:32:51.179Z,31.60
2017-09-28T03:35:18.720Z,21.97
2017-09-28T03:37:47.012Z,25.10
2017-09-28T03:40:14.897Z,25.83
2017-09-28T03:42:42.427Z,27.63
2017-09-28T03:45:09.954Z,24.27
2017-09-28T03:47:37.785Z,24.37
2017-09-28T03:50:05.344Z,22.93
2017-09-28T03:52:32.866Z,23.77
2017-09-28T03:55:01.425Z,25.63
2017-09-28T03:57:28.939Z,27.70
2017-09-28T03:59:56.461Z,21.90
2017-09-28T04:02:25.178Z,23.53
2017-09-28T04:04:52.696Z,32.63
2017-09-28T04:07:20.227Z,22.50
2017-09-28T04:09:48.173Z,28.20
2017-09-28T04:12:15.695Z,28.13
2017-09-28T04:14:43.974Z,22.70
2017-09-28T04:17:12.585Z,25.43
2017-09-28T04:19:40.112Z,26.40
2017-09-28T04:22:07.640Z,29.47
2017-09-28T04:24:35.483Z,26.93
2017-09-28T04:27:03.013Z,23.80
2017-09-28T04:29:31.309Z,25.70
2017-09-28T04:31:59.211Z,25.90
2017-09-28T04:34:26.736Z,29.00
2017-09-28T04:36:54.280Z,27.83
2017-09-28T04:39:22.915Z,30.10
2017-09-28T04:41:50.475Z,28.43
2017-09-28T04:44:18.015Z,30.47
2017-09-28T04:46:45.883Z,29.93
2017-09-28T04:49:13.424Z,25.50
2017-09-28T04:51:41.692Z,23.30
2017-09-28T04:54:10.300Z,21.10
2017-09-28T04:56:37.820Z,26.20
2017-09-28T04:59:05.354Z,28.43
2017-09-28T05:01:33.272Z,22.60
2017-09-28T05:04:01.576Z,24.13
2017-09-28T05:06:29.098Z,21.50
2017-09-28T05:08:57.751Z,27.13
2017-09-28T05:11:25.285Z,23.27
2017-09-28T05:13:52.847Z,21.90
2017-09-28T05:16:20.857Z,28.60
2017-09-28T05:18:48.403Z,28.83
2017-09-28T05:21:15.929Z,23.17
2017-09-28T05:23:43.801Z,23.60
2017-09-28T05:26:11.358Z,28.10
2017-09-28T05:28:38.890Z,28.30
2017-09-28T05:31:07.519Z,40.53
2017-09-28T05:33:35.059Z,26.30
2017-09-28T05:36:02.579Z,27.10
2017-09-28T05:38:30.415Z,29.70
2017-09-28T05:40:57.958Z,22.20
2017-09-28T05:43:25.528Z,24.43
2017-09-28T05:45:53.356Z,25.37
2017-09-28T05:48:20.889Z,26.57
2017-09-28T05:50:48.427Z,26.00
2017-09-28T05:53:16.295Z,26.57
2017-09-28T05:55:43.822Z,28.03
2017-09-28T05:58:11.336Z,28.53
2017-09-28T06:00:39.976Z,22.80
2017-09-28T06:03:07.512Z,25.53
2017-09-28T06:05:35.131Z,29.50
2017-09-28T06:08:03.620Z,33.53
2017-09-28T06:10:31.148Z,24.40
2017-09-28T06:12:58.659Z,23.93
2017-09-28T06:15:26.227Z,27.90
2017-09-28T06:17:53.824Z,24.37
2017-09-28T06:20:21.353Z,29.03
2017-09-28T06:22:48.899Z,24.63
2017-09-28T06:25:17.223Z,24.30
2017-09-28T06:27:44.769Z,30.47
2017-09-28T06:30:12.343Z,24.60
2017-09-28T06:32:40.010Z,23.57
2017-09-28T06:35:07.550Z,24.30
2017-09-28T06:37:35.124Z,23.00
2017-09-28T06:40:02.639Z,29.73
2017-09-28T06:42:30.460Z,23.67
2017-09-28T06:44:58.027Z,27.73
2017-09-28T06:47:25.548Z,25.03
2017-09-28T06:49:53.891Z,22.20
2017-09-28T06:52:21.422Z,25.50
2017-09-28T06:54:48.995Z,22.30
2017-09-28T06:57:16.506Z,27.77
2017-09-28T06:59:44.800Z,29.80
2017-09-28T07:02:12.356Z,23.60
2017-09-28T07:04:39.904Z,25.13
2017-09-28T07:07:08.509Z,23.03
2017-09-28T07:09:36.016Z,27.80
2017-09-28T07:12:03.543Z,22.43
2017-09-28T07:14:31.094Z,23.30
2017-09-28T07:16:58.619Z,27.40
2017-09-28T07:19:26.911Z,25.40
2017-09-28T07:21:54.469Z,27.13
2017-09-28T07:24:21.980Z,27.90
2017-09-28T07:26:50.235Z,25.90
2017-09-28T07:29:17.796Z,23.83
2017-09-28T07:31:45.335Z,22.33
2017-09-28T07:34:12.879Z,26.07
2017-09-28T07:36:41.250Z,29.80
2017-09-28T07:39:09.546Z,22.33
2017-09-28T07:41:37.355Z,25.23
2017-09-28T07:44:04.896Z,30.67
2017-09-28T07:46:32.419Z,25.20
2017-09-28T07:49:00.757Z,22.80
2017-09-28T07:51:28.285Z,29.40
2017-09-28T07:53:55.896Z,28.40
2017-09-28T07:56:23.438Z,23.23
2017-09-28T07:58:50.968Z,25.03
2017-09-28T08:01:18.481Z,23.83
2017-09-28T08:03:46.020Z,26.43
2017-09-28T08:06:13.541Z,27.20
2017-09-28T08:08:41.101Z,28.40
2017-09-28T08:11:08.670Z,24.63
2017-09-28T08:13:36.214Z,31.10
2017-09-28T08:16:03.738Z,30.13
2017-09-28T08:18:31.309Z,25.93
2017-09-28T08:20:59.621Z,28.30
2017-09-28T08:23:27.134Z,27.93
2017-09-28T08:25:54.691Z,32.50
2017-09-28T08:28:22.216Z,28.93
2017-09-28T08:30:49.729Z,29.70
2017-09-28T08:33:18.488Z,28.17
2017-09-28T08:35:46.010Z,29.80
2017-09-28T08:38:13.535Z,32.13
2017-09-28T08:40:41.905Z,26.27
2017-09-28T08:43:09.436Z,30.43
2017-09-28T08:45:36.983Z,34.23
2017-09-28T08:48:04.555Z,31.80
2017-09-28T08:50:32.092Z,34.63
2017-09-28T08:53:00.433Z,29.57
2017-09-28T08:55:28.011Z,30.03
2017-09-28T08:57:56.287Z,25.03
2017-09-28T09:00:24.895Z,25.83
2017-09-28T09:02:52.419Z,27.90
2017-09-28T09:05:19.942Z,30.37
2017-09-28T09:07:47.515Z,29.77
2017-09-28T09:10:15.032Z,26.40
2017-09-28T09:12:42.947Z,27.07
2017-09-28T09:15:10.535Z,26.17
2017-09-28T09:17:38.827Z,26.93
2017-09-28T09:20:06.359Z,30.67
2017-09-28T09:22:34.299Z,23.13
2017-09-28T09:25:01.835Z,23.10
2017-09-28T09:27:29.360Z,24.47
2017-09-28T09:29:57.714Z,23.77
2017-09-28T09:32:25.253Z,23.07
2017-09-28T09:34:52.807Z,24.70
2017-09-28T09:37:20.378Z,25.37
2017-09-28T09:39:47.915Z,24.90
2017-09-28T09:42:15.438Z,24.43
2017-09-28T09:44:44.691Z,26.80
2017-09-28T09:47:12.217Z,24.70
2017-09-28T09:49:40.508Z,24.87
2017-09-28T09:52:08.390Z,32.47
2017-09-28T09:54:35.926Z,25.70
2017-09-28T09:57:03.451Z,23.33
2017-09-28T09:59:31.016Z,23.00
2017-09-28T10:01:58.540Z,23.83
2017-09-28T10:04:26.076Z,22.43
2017-09-28T10:07:03.499Z,27.80
2017-09-28T10:09:50.924Z,24.77
2017-09-28T10:12:22.986Z,26.57
2017-09-28T10:14:54.348Z,22.90
2017-09-28T10:17:21.912Z,27.07
2017-09-28T10:19:49.456Z,22.40
2017-09-28T10:22:16.971Z,23.80
2017-09-28T10:24:44.555Z,25.43
2017-09-28T10:27:12.113Z,26.73
2017-09-28T10:29:39.686Z,24.90
2017-09-28T10:32:07.241Z,34.20
2017-09-28T10:34:34.768Z,26.97
2017-09-28T10:37:03.095Z,23.23
2017-09-28T10:39:30.616Z,25.40
2017-09-28T10:41:58.140Z,26.80
2017-09-28T10:44:25.698Z,27.50
2017-09-28T10:46:53.245Z,33.10
2017-09-28T10:49:20.815Z,23.10
2017-09-28T10:51:48.344Z,27.77
2017-09-28T10:54:15.872Z,28.53
2017-09-28T10:56:44.185Z,28.47
2017-09-28T10:59:11.720Z,23.60
2017-09-28T11:01:39.302Z,27.90
2017-09-28T11:04:06.824Z,24.33
2017-09-28T11:06:35.123Z,24.30
2017-09-28T11:09:02.684Z,25.43
2017-09-28T11:11:30.211Z,25.20
2017-09-28T11:13:58.543Z,24.70
2017-09-28T11:16:26.083Z,24.20
2017-09-28T11:18:53.601Z,28.37
2017-09-28T11:21:21.160Z,22.87
2017-09-28T11:23:49.483Z,23.93
2017-09-28T11:26:17.386Z,29.03
2017-09-28T11:28:45.625Z,30.13
2017-09-28T11:31:13.159Z,21.93
2017-09-28T11:33:41.495Z,21.07
2017-09-28T11:36:09.023Z,22.97
2017-09-28T11:38:36.593Z,22.50
2017-09-28T11:41:04.123Z,23.10
2017-09-28T11:43:32.423Z,21.70
2017-09-28T11:45:59.972Z,19.60
2017-09-28T11:48:28.260Z,21.10
2017-09-28T12:03:46.394Z,21.73
2017-09-28T12:06:13.947Z,21.40
2017-09-28T12:08:41.471Z,22.33
2017-09-28T12:11:09.052Z,25.90
2017-09-28T12:13:37.351Z,19.80
2017-09-28T12:16:04.952Z,21.33
2017-09-28T12:18:32.487Z,23.47
2017-09-28T12:21:00.019Z,22.47
2017-09-28T12:23:28.341Z,22.13
2017-09-28T12:25:55.858Z,24.77
2017-09-28T12:28:24.460Z,24.20
2017-09-28T12:30:51.990Z,25.20
2017-09-28T12:33:20.287Z,24.90
2017-09-28T12:35:47.853Z,26.20
2017-09-28T12:38:15.377Z,24.77
2017-09-28T12:40:42.941Z,26.47
2017-09-28T12:43:10.483Z,25.80
2017-09-28T12:45:38.002Z,28.67
2017-09-28T12:48:05.569Z,27.20
2017-09-28T12:50:33.124Z,25.53
2017-09-28T12:53:00.994Z,27.57
2017-09-28T12:55:28.519Z,28.90
2017-09-28T12:57:56.832Z,28.33
2017-09-28T13:00:25.162Z,27.80
2017-09-28T13:02:52.688Z,25.83
2017-09-28T13:05:20.252Z,26.87
2017-09-28T13:07:47.782Z,29.27
2017-09-28T13:10:15.307Z,27.20
2017-09-28T13:12:42.867Z,28.33
2017-09-28T13:15:10.386Z,28.87
2017-09-28T13:17:37.953Z,34.33
2017-09-28T13:20:05.483Z,27.97
2017-09-28T13:22:33.004Z,30.77
2017-09-28T13:25:01.375Z,31.03
2017-09-28T13:27:29.716Z,30.50
2017-09-28T13:29:57.416Z,29.40
2017-09-28T13:32:25.067Z,29.33
2017-09-28T13:34:52.683Z,30.27
2017-09-28T13:37:20.291Z,29.77
2017-09-28T13:39:47.925Z,36.33
2017-09-28T13:42:15.675Z,29.00
2017-09-28T13:44:45.286Z,29.80
2017-09-28T13:47:12.945Z,27.50
2017-09-28T13:49:40.699Z,31.23
2017-09-28T13:52:09.113Z,31.67
2017-09-28T13:54:36.788Z,31.23
2017-09-28T13:57:04.433Z,28.93
2017-09-28T13:59:32.020Z,30.43
2017-09-28T14:01:59.640Z,33.30
2017-09-28T14:04:28.050Z,28.00
2017-09-28T14:06:55.715Z,30.50
2017-09-28T14:09:23.400Z,34.10
2017-09-28T14:11:51.029Z,28.77
2017-09-28T14:14:18.651Z,27.90
2017-09-28T14:16:47.999Z,27.97
2017-09-28T14:19:15.913Z,29.47
2017-09-28T14:21:43.521Z,28.10
2017-09-28T14:24:12.229Z,28.77
2017-09-28T14:26:39.847Z,30.27
2017-09-28T14:29:08.137Z,28.87
2017-09-28T14:31:35.738Z,28.53
2017-09-28T14:34:03.279Z,26.37
2017-09-28T14:36:32.584Z,29.53
2017-09-28T14:39:00.154Z,36.80
2017-09-28T14:41:27.690Z,29.73
2017-09-28T14:43:55.270Z,27.33
2017-09-28T14:46:22.853Z,28.80
2017-09-28T14:48:50.387Z,27.20
2017-09-28T14:51:17.989Z,28.80
2017-09-28T14:53:45.565Z,30.83
2017-09-28T14:56:13.996Z,31.63
2017-09-28T14:58:41.591Z,28.07
2017-09-28T15:01:09.176Z,26.93
2017-09-28T15:03:37.528Z,28.47
2017-09-28T15:06:05.055Z,26.53
2017-09-28T15:08:32.909Z,30.17
2017-09-28T15:11:00.424Z,25.67
2017-09-28T15:13:27.992Z,25.03
2017-09-28T15:15:56.325Z,27.17
2017-09-28T15:18:23.842Z,27.70
2017-09-28T15:20:52.445Z,25.57
2017-09-28T15:23:19.995Z,29.10
2017-09-28T15:25:47.522Z,28.60
2017-09-28T15:28:15.091Z,27.37
2017-09-28T15:30:43.404Z,25.10
2017-09-28T15:33:11.003Z,28.47
2017-09-28T15:35:38.533Z,26.43
2017-09-28T15:38:06.854Z,30.37
2017-09-28T15:40:34.431Z,28.90
2017-09-28T15:43:01.973Z,31.37
2017-09-28T15:45:29.839Z,25.97
2017-09-28T15:47:57.363Z,26.13
2017-09-28T15:50:24.884Z,27.43
2017-09-28T15:52:53.207Z,25.63
2017-09-28T15:55:20.763Z,25.40
2017-09-28T15:57:48.354Z,23.67
2017-09-28T16:00:15.889Z,24.80
2017-09-28T16:02:44.211Z,25.93
2017-09-28T16:05:11.789Z,25.30
2017-09-28T16:07:40.087Z,28.03
2017-09-28T16:10:07.667Z,27.30
2017-09-28T16:12:35.205Z,30.03
2017-09-28T16:15:02.743Z,24.37
2017-09-28T16:17:31.073Z,24.90
2017-09-28T16:19:58.621Z,27.87
2017-09-28T16:22:26.196Z,25.47
2017-09-28T16:24:53.762Z,29.17
2017-09-28T16:27:21.295Z,25.13
2017-09-28T16:29:48.865Z,25.97
2017-09-28T16:32:16.445Z,24.00
2017-09-28T16:34:44.010Z,28.70
2017-09-28T16:37:11.548Z,25.87
2017-09-28T16:39:39.080Z,26.50
2017-09-28T16:42:07.399Z,28.33
2017-09-28T16:44:35.966Z,28.90
2017-09-28T16:47:03.875Z,25.50
2017-09-28T16:49:31.444Z,27.23
2017-09-28T16:51:59.856Z,30.10
2017-09-28T16:54:27.550Z,27.67
2017-09-28T16:56:55.152Z,27.80
2017-09-28T16:59:23.280Z,27.90
2017-09-28T17:01:50.883Z,25.13
2017-09-28T17:04:18.453Z,28.20
2017-09-28T17:06:46.106Z,31.80
2017-09-28T17:09:14.469Z,29.60
2017-09-28T17:11:42.933Z,29.77
2017-09-28T17:14:11.364Z,28.83
2017-09-28T17:16:39.413Z,35.03
2017-09-28T17:19:07.851Z,32.10
2017-09-28T17:21:37.499Z,29.87
2017-09-28T17:24:07.118Z,27.77
2017-09-28T17:26:36.622Z,36.70
2017-09-28T17:29:05.173Z,27.63
2017-09-28T17:31:33.334Z,27.73
2017-09-28T17:34:02.792Z,27.33
2017-09-28T17:36:30.722Z,29.20
2017-09-28T17:41:35.705Z,32.10
2017-09-28T17:44:03.794Z,26.57
2017-09-28T17:46:32.306Z,30.30
2017-09-28T17:49:03.384Z,29.00
2017-09-28T17:51:51.721Z,30.93
2017-09-28T17:57:21.300Z,36.70
2017-09-28T17:59:48.968Z,29.70
2017-09-28T18:02:16.539Z,31.33
2017-09-28T18:04:44.873Z,28.70
2017-09-28T18:07:13.235Z,29.70
2017-09-28T18:09:40.839Z,35.47
2017-09-28T18:12:08.373Z,29.83
2017-09-28T18:14:35.943Z,30.83
2017-09-28T18:17:03.471Z,30.50
2017-09-28T18:19:30.995Z,29.53
2017-09-28T18:22:00.224Z,29.80
2017-09-28T18:24:32.121Z,30.57
2017-09-28T18:27:00.059Z,30.63
2017-09-28T18:29:34.738Z,32.87
2017-09-28T18:35:05.989Z,37.93
2017-09-28T18:37:34.047Z,31.70
2017-09-28T18:40:01.609Z,30.07
2017-09-28T18:42:29.135Z,31.77
2017-09-28T18:44:56.700Z,35.80
2017-09-28T18:47:24.622Z,33.27
2017-09-28T18:49:52.566Z,37.50
2017-09-28T18:52:20.224Z,33.60
2017-09-28T18:54:47.800Z,38.83
2017-09-28T18:57:15.399Z,33.50
2017-09-28T18:59:43.715Z,41.17
2017-09-28T19:02:11.327Z,31.60
2017-09-28T19:04:38.939Z,34.57
2017-09-28T19:07:06.503Z,32.60
2017-09-28T19:09:34.095Z,31.50
2017-09-28T19:12:02.551Z,31.53
2017-09-28T19:14:30.411Z,31.33
2017-09-28T19:16:58.125Z,33.40
2017-09-28T19:19:25.674Z,33.40
2017-09-28T19:21:53.626Z,33.17
2017-09-28T19:24:21.234Z,35.33
2017-09-28T19:26:49.573Z,33.03
2017-09-28T19:29:17.289Z,35.17
2017-09-28T19:31:44.869Z,37.03
2017-09-28T19:34:12.422Z,38.80
2017-09-28T19:36:40.009Z,44.07
2017-09-28T19:39:07.722Z,40.33
2017-09-28T19:41:36.023Z,34.50
2017-09-28T19:44:03.729Z,32.83
2017-09-28T19:46:31.616Z,36.73
2017-09-28T19:48:59.274Z,35.00
2017-09-28T19:51:27.658Z,43.17
2017-09-28T19:53:56.788Z,42.40
2017-09-28T19:56:24.405Z,42.57
2017-09-28T19:58:52.007Z,37.80
2017-09-28T20:01:19.578Z,39.00
2017-09-28T20:03:47.164Z,35.87
2017-09-28T20:06:14.699Z,37.80
2017-09-28T20:08:42.228Z,40.20
2017-09-28T20:11:10.347Z,38.20
2017-09-28T20:13:37.917Z,38.13
2017-09-28T20:16:05.541Z,44.00
2017-09-28T20:18:33.845Z,39.33
2017-09-28T20:21:01.411Z,40.53
2017-09-28T20:23:28.973Z,37.20
2017-09-28T20:25:57.496Z,34.30
2017-09-28T20:28:25.098Z,35.97
2017-09-28T20:30:52.656Z,40.37
2017-09-28T20:33:20.209Z,34.53
2017-09-28T20:35:47.866Z,35.10
2017-09-28T20:38:16.169Z,37.77
2017-09-28T20:40:44.077Z,42.93
2017-09-28T20:43:11.607Z,38.80
2017-09-28T20:45:39.224Z,34.93
2017-09-28T20:48:07.603Z,41.00
2017-09-28T20:50:35.925Z,34.13
2017-09-28T20:53:03.516Z,40.10
2017-09-28T20:55:31.426Z,40.50
2017-09-28T20:57:59.710Z,41.03
2017-09-28T21:00:27.293Z,36.60
2017-09-28T21:02:55.707Z,36.77
2017-09-28T21:05:23.320Z,36.93
2017-09-28T21:07:50.869Z,42.57
2017-09-28T21:10:19.181Z,35.40
2017-09-28T21:12:46.823Z,41.57
2017-09-28T21:15:14.378Z,39.13
2017-09-28T21:17:42.243Z,38.20
2017-09-28T21:20:09.785Z,40.90
2017-09-28T21:22:38.108Z,42.40
2017-09-28T21:25:05.665Z,35.40
2017-09-28T21:27:33.193Z,32.00
2017-09-28T21:30:01.519Z,39.93
2017-09-28T21:32:29.141Z,34.07
2017-09-28T21:34:56.736Z,30.40
2017-09-28T21:37:24.346Z,28.77
2017-09-28T21:39:52.982Z,30.90
2017-09-28T21:42:20.782Z,27.10
2017-09-28T21:44:48.304Z,27.80
2017-09-28T21:47:15.936Z,26.27
2017-09-28T21:49:43.513Z,24.97
2017-09-28T21:52:11.055Z,27.80
2017-09-28T21:54:39.004Z,25.03
2017-09-28T21:57:06.571Z,28.30
2017-09-28T21:59:34.879Z,25.97
2017-09-28T22:02:02.438Z,23.70
2017-09-28T22:04:29.960Z,25.40
2017-09-28T22:06:57.776Z,23.97
2017-09-28T22:09:25.421Z,24.20
2017-09-28T22:11:52.960Z,21.50
2017-09-28T22:14:21.296Z,22.07
2017-09-28T22:16:48.876Z,23.13
2017-09-28T22:19:16.468Z,21.03
2017-09-28T22:21:44.026Z,20.43
2017-09-28T22:24:12.338Z,21.60
2017-09-28T22:26:39.894Z,23.73
2017-09-28T22:29:07.422Z,22.13
2017-09-28T22:31:35.037Z,20.70
2017-09-28T22:34:02.570Z,19.97
2017-09-28T22:36:30.125Z,28.00
2017-09-28T22:38:57.685Z,23.03
2017-09-28T22:41:25.238Z,20.70
2017-09-28T22:43:53.587Z,22.27
2017-09-28T22:46:21.119Z,27.43
2017-09-28T22:48:48.649Z,21.87
2017-09-28T22:51:16.234Z,20.30
2017-09-28T22:53:43.764Z,24.20
2017-09-28T22:56:11.339Z,24.13
2017-09-28T22:58:38.876Z,27.50
2017-09-28T23:01:07.182Z,22.47
2017-09-28T23:03:34.745Z,29.30
2017-09-28T23:06:03.070Z,21.87
2017-09-28T23:08:31.451Z,21.97
2017-09-28T23:10:58.974Z,24.30
2017-09-28T23:13:26.507Z,26.63
2017-09-28T23:15:54.076Z,19.87
2017-09-28T23:18:21.627Z,22.23
2017-09-28T23:20:49.226Z,26.77
2017-09-28T23:23:16.751Z,22.67
2017-09-28T23:25:44.285Z,23.67
2017-09-28T23:28:12.611Z,22.47
2017-09-28T23:30:40.152Z,28.93
2017-09-28T23:33:08.033Z,26.23
2017-09-28T23:35:35.561Z,23.97
2017-09-28T23:38:03.854Z,27.43
2017-09-28T23:40:31.412Z,23.00
2017-09-28T23:42:58.957Z,25.20
2017-09-28T23:45:27.275Z,28.83
2017-09-28T23:47:54.801Z,24.40
2017-09-28T23:50:23.099Z,28.00
2017-09-28T23:52:50.668Z,26.90
2017-09-28T23:55:18.219Z,27.13
2017-09-28T23:57:46.040Z,24.80
